createdAt,value
2023-03-27T00:00:43.482Z,8.50
2023-03-27T00:03:16.730Z,10.90
2023-03-27T00:05:47.346Z,10.35
2023-03-27T00:08:18.377Z,8.95
2023-03-27T00:10:49.744Z,8.38
2023-03-27T00:13:21.140Z,8.63
2023-03-27T00:15:52.323Z,8.40
2023-03-27T00:18:22.968Z,8.23
2023-03-27T00:20:54.322Z,6.88
2023-03-27T00:23:25.295Z,6.72
2023-03-27T00:25:56.846Z,7.25
2023-03-27T00:28:29.668Z,6.90
2023-03-27T00:31:00.393Z,7.07
2023-03-27T00:33:30.980Z,7.20
2023-03-27T00:36:01.311Z,7.50
2023-03-27T00:38:32.337Z,6.88
2023-03-27T00:41:03.134Z,6.35
2023-03-27T00:43:37.736Z,6.97
2023-03-27T00:46:17.235Z,6.65
2023-03-27T00:48:49.895Z,10.30
2023-03-27T00:51:23.964Z,7.57
2023-03-27T00:53:54.779Z,7.00
2023-03-27T00:56:26.869Z,6.28
2023-03-27T00:59:01.267Z,6.07
2023-03-27T01:01:33.024Z,6.10
2023-03-27T01:04:08.092Z,7.45
2023-03-27T01:06:40.396Z,12.90
2023-03-27T01:09:20.714Z,9.40
2023-03-27T01:12:25.053Z,8.27
2023-03-27T01:15:21.563Z,7.72
2023-03-27T01:18:11.462Z,6.80
2023-03-27T01:21:11.760Z,7.60
2023-03-27T01:24:00.962Z,8.02
2023-03-27T01:27:04.790Z,8.52
2023-03-27T01:29:59.471Z,8.13
2023-03-27T01:32:42.579Z,8.25
2023-03-27T01:35:47.907Z,9.45
2023-03-27T01:38:44.845Z,11.15
2023-03-27T01:41:23.285Z,10.25
2023-03-27T01:44:06.614Z,12.32
2023-03-27T01:46:42.631Z,10.95
2023-03-27T01:49:34.270Z,13.73
2023-03-27T01:52:09.252Z,10.95
2023-03-27T01:54:44.421Z,8.80
2023-03-27T01:57:23.308Z,15.73
2023-03-27T02:00:19.674Z,11.55
2023-03-27T02:02:58.133Z,7.45
2023-03-27T02:05:30.531Z,8.48
2023-03-27T02:08:11.444Z,9.20
2023-03-27T02:10:45.424Z,14.52
2023-03-27T02:13:22.468Z,16.42
2023-03-27T02:15:54.134Z,15.98
2023-03-27T02:18:35.524Z,17.35
2023-03-27T02:21:07.539Z,15.77
2023-03-27T02:23:39.695Z,16.58
2023-03-27T02:26:20.386Z,17.42
2023-03-27T02:29:24.881Z,16.98
2023-03-27T02:32:10.824Z,16.77
2023-03-27T02:35:03.815Z,17.63
2023-03-27T02:37:42.624Z,17.55
2023-03-27T02:40:59.545Z,18.40
2023-03-27T02:44:15.747Z,17.63
2023-03-27T02:47:29.466Z,16.00
2023-03-27T02:50:07.807Z,18.50
2023-03-27T02:52:47.511Z,18.02
2023-03-27T02:55:47.672Z,18.48
2023-03-27T02:58:28.009Z,18.45
2023-03-27T03:01:02.432Z,17.73
2023-03-27T03:04:25.417Z,18.52
2023-03-27T03:07:07.352Z,16.33
2023-03-27T03:09:40.640Z,16.40
2023-03-27T03:12:13.171Z,14.82
2023-03-27T03:14:45.297Z,13.82
2023-03-27T03:17:20.112Z,15.57
2023-03-27T03:19:50.634Z,12.15
2023-03-27T03:22:21.753Z,13.68
2023-03-27T03:24:52.520Z,14.77
2023-03-27T03:27:30.105Z,14.35
2023-03-27T03:30:08.458Z,15.13
2023-03-27T03:32:54.028Z,12.35
2023-03-27T03:35:26.213Z,12.50
2023-03-27T03:37:58.672Z,12.93
2023-03-27T03:40:31.579Z,11.57
2023-03-27T03:43:02.296Z,12.43
2023-03-27T03:45:33.586Z,11.32
2023-03-27T03:48:04.454Z,12.13
2023-03-27T03:50:35.060Z,10.73
2023-03-27T03:53:06.498Z,11.18
2023-03-27T03:55:37.516Z,10.88
2023-03-27T03:58:08.937Z,10.48
2023-03-27T04:00:41.453Z,9.57
2023-03-27T04:03:28.539Z,10.40
2023-03-27T04:06:06.072Z,9.10
2023-03-27T04:08:36.826Z,10.77
2023-03-27T04:11:07.993Z,10.50
2023-03-27T04:13:51.925Z,16.20
2023-03-27T04:16:37.612Z,8.30
2023-03-27T04:19:19.796Z,8.70
2023-03-27T04:21:57.233Z,7.93
2023-03-27T04:24:32.388Z,8.52
2023-03-27T04:27:03.264Z,8.65
2023-03-27T04:29:56.423Z,11.15
2023-03-27T04:32:54.990Z,8.60
2023-03-27T04:36:05.381Z,9.20
2023-03-27T04:38:56.405Z,9.15
2023-03-27T04:41:30.835Z,8.63
2023-03-27T04:44:02.173Z,8.75
2023-03-27T04:46:42.441Z,8.70
2023-03-27T04:49:15.573Z,8.32
2023-03-27T04:52:00.841Z,8.13
2023-03-27T04:54:33.272Z,8.18
2023-03-27T04:57:04.631Z,7.85
2023-03-27T04:59:35.577Z,8.20
2023-03-27T05:02:27.377Z,7.93
2023-03-27T05:05:05.709Z,8.50
2023-03-27T05:07:40.401Z,7.95
2023-03-27T05:10:12.211Z,7.85
2023-03-27T05:12:50.229Z,7.93
2023-03-27T05:15:22.720Z,8.70
2023-03-27T05:17:56.866Z,8.23
2023-03-27T05:20:29.827Z,8.45
2023-03-27T05:23:02.165Z,7.97
2023-03-27T05:25:37.033Z,8.18
2023-03-27T05:28:12.690Z,8.27
2023-03-27T05:30:45.100Z,8.30
2023-03-27T05:33:21.524Z,8.77
2023-03-27T05:35:53.296Z,8.85
2023-03-27T05:38:27.270Z,8.45
2023-03-27T05:41:19.104Z,9.18
2023-03-27T05:43:52.593Z,8.90
2023-03-27T05:46:24.592Z,8.20
2023-03-27T05:49:02.369Z,8.07
2023-03-27T05:51:34.449Z,8.32
2023-03-27T05:54:05.471Z,7.75
2023-03-27T05:56:57.593Z,7.55
2023-03-27T05:59:28.647Z,7.22
2023-03-27T06:02:14.722Z,8.02
2023-03-27T06:04:50.517Z,7.40
2023-03-27T06:07:53.783Z,7.40
2023-03-27T06:10:25.078Z,7.13
2023-03-27T06:13:15.612Z,8.02
2023-03-27T06:15:57.321Z,8.52
2023-03-27T06:18:41.676Z,8.40
2023-03-27T06:21:14.479Z,7.45
2023-03-27T06:23:46.911Z,8.32
2023-03-27T06:26:20.383Z,8.40
2023-03-27T06:28:51.671Z,7.85
2023-03-27T06:31:23.037Z,7.78
2023-03-27T06:34:20.079Z,7.20
2023-03-27T06:37:00.680Z,6.43
2023-03-27T06:39:32.388Z,6.10
2023-03-27T06:42:03.075Z,6.93
2023-03-27T06:44:49.911Z,7.05
2023-03-27T06:47:51.592Z,6.72
2023-03-27T06:50:52.181Z,7.30
2023-03-27T06:53:27.851Z,7.30
2023-03-27T06:55:59.861Z,7.03
2023-03-27T06:58:41.832Z,7.78
2023-03-27T07:01:13.669Z,7.43
2023-03-27T07:04:02.114Z,6.43
2023-03-27T07:06:39.620Z,6.55
2023-03-27T07:09:14.356Z,7.28
2023-03-27T07:11:53.054Z,7.30
2023-03-27T07:14:25.186Z,7.07
2023-03-27T07:16:55.934Z,6.68
2023-03-27T07:19:29.315Z,7.15
2023-03-27T07:22:08.219Z,7.10
2023-03-27T07:24:41.703Z,7.20
2023-03-27T07:27:13.632Z,6.85
2023-03-27T07:29:45.375Z,6.50
2023-03-27T07:32:36.145Z,6.55
2023-03-27T07:35:09.516Z,6.55
2023-03-27T07:38:12.447Z,8.00
2023-03-27T07:41:07.736Z,7.50
2023-03-27T07:44:07.935Z,7.13
2023-03-27T07:46:55.892Z,6.65
2023-03-27T07:49:40.092Z,7.20
2023-03-27T07:52:16.663Z,7.78
2023-03-27T07:54:54.115Z,6.90
2023-03-27T07:57:26.895Z,6.97
2023-03-27T08:00:12.466Z,6.55
2023-03-27T08:03:09.476Z,8.02
2023-03-27T08:05:51.540Z,6.65
2023-03-27T08:08:25.430Z,7.53
2023-03-27T08:11:01.915Z,6.15
2023-03-27T08:13:42.039Z,6.68
2023-03-27T08:16:21.031Z,6.75
2023-03-27T08:18:51.163Z,7.28
2023-03-27T08:21:22.603Z,6.97
2023-03-27T08:24:41.990Z,5.43
2023-03-27T08:27:21.429Z,5.63
2023-03-27T08:29:58.633Z,6.32
2023-03-27T08:32:30.003Z,5.13
2023-03-27T08:35:01.664Z,6.53
2023-03-27T08:37:32.407Z,6.55
2023-03-27T08:40:31.816Z,5.70
2023-03-27T08:43:28.359Z,5.30
2023-03-27T08:46:08.970Z,5.63
2023-03-27T08:48:55.563Z,6.43
2023-03-27T08:51:33.269Z,5.82
2023-03-27T08:54:16.300Z,6.47
2023-03-27T08:56:49.122Z,6.07
2023-03-27T08:59:31.449Z,7.13
2023-03-27T09:02:11.057Z,7.50
2023-03-27T09:05:02.555Z,5.40
2023-03-27T09:07:35.599Z,4.88
2023-03-27T09:10:40.668Z,5.40
2023-03-27T09:13:39.174Z,6.20
2023-03-27T09:16:20.650Z,5.40
2023-03-27T09:19:18.406Z,7.50
2023-03-27T09:21:51.303Z,5.63
2023-03-27T09:24:45.596Z,6.70
2023-03-27T09:27:48.576Z,6.43
2023-03-27T09:30:33.412Z,6.45
2023-03-27T09:33:12.343Z,6.30
2023-03-27T09:35:45.200Z,5.15
2023-03-27T09:38:51.725Z,6.00
2023-03-27T09:41:29.124Z,6.72
2023-03-27T09:44:07.691Z,6.47
2023-03-27T09:46:46.350Z,5.40
2023-03-27T09:49:20.173Z,5.57
2023-03-27T09:51:54.905Z,6.00
2023-03-27T09:54:57.710Z,6.78
2023-03-27T09:57:38.299Z,6.65
2023-03-27T10:00:31.895Z,6.43
2023-03-27T10:03:04.985Z,6.10
2023-03-27T10:05:39.406Z,7.22
2023-03-27T10:08:34.587Z,6.57
2023-03-27T10:11:18.870Z,6.57
2023-03-27T10:13:56.711Z,6.80
2023-03-27T10:16:30.244Z,7.80
2023-03-27T10:19:25.404Z,6.80
2023-03-27T10:21:58.130Z,6.68
2023-03-27T10:24:44.342Z,6.75
2023-03-27T10:27:41.499Z,5.38
2023-03-27T10:31:05.489Z,5.35
2023-03-27T10:33:47.382Z,5.35
2023-03-27T10:36:38.711Z,5.07
2023-03-27T10:39:16.315Z,5.40
2023-03-27T10:42:10.302Z,5.05
2023-03-27T10:44:49.229Z,5.35
2023-03-27T10:47:22.608Z,7.00
2023-03-27T10:50:08.793Z,5.53
2023-03-27T10:52:51.355Z,5.65
2023-03-27T10:55:49.395Z,6.40
2023-03-27T10:58:40.918Z,6.57
2023-03-27T11:01:27.810Z,5.53
2023-03-27T11:04:14.261Z,4.13
2023-03-27T11:06:53.609Z,5.57
2023-03-27T11:09:38.018Z,5.18
2023-03-27T11:12:20.900Z,5.63
2023-03-27T11:15:12.703Z,5.95
2023-03-27T11:17:58.108Z,5.65
2023-03-27T11:20:53.526Z,5.97
2023-03-27T11:23:41.267Z,5.90
2023-03-27T11:26:25.501Z,5.75
2023-03-27T11:29:24.450Z,5.20
2023-03-27T11:32:04.700Z,6.07
2023-03-27T11:34:58.664Z,5.95
2023-03-27T11:38:05.870Z,5.97
2023-03-27T11:40:52.547Z,6.43
2023-03-27T11:43:24.102Z,6.50
2023-03-27T11:46:31.611Z,7.18
2023-03-27T11:49:19.939Z,6.13
2023-03-27T11:52:11.294Z,6.10
2023-03-27T11:55:14.274Z,5.10
2023-03-27T11:57:54.656Z,13.55
2023-03-27T12:00:47.376Z,7.78
2023-03-27T12:03:33.413Z,6.07
2023-03-27T12:06:17.961Z,6.03
2023-03-27T12:09:07.463Z,7.03
2023-03-27T12:12:08.741Z,6.85
2023-03-27T12:14:53.500Z,7.22
2023-03-27T12:17:47.147Z,6.43
2023-03-27T12:20:58.950Z,8.93
2023-03-27T12:24:18.230Z,6.88
2023-03-27T12:27:21.590Z,5.55
2023-03-27T12:30:39.564Z,6.28
2023-03-27T12:33:34.557Z,7.07
2023-03-27T12:36:08.204Z,6.25
2023-03-27T12:38:42.317Z,6.93
2023-03-27T12:41:25.674Z,5.63
2023-03-27T12:44:16.411Z,5.88
2023-03-27T12:47:27.430Z,6.05
2023-03-27T12:50:28.415Z,5.35
2023-03-27T12:53:00.798Z,6.30
2023-03-27T12:55:38.859Z,6.20
2023-03-27T12:58:39.165Z,5.85
2023-03-27T13:01:11.919Z,14.98
2023-03-27T13:03:49.773Z,5.45
2023-03-27T13:06:56.943Z,4.57
2023-03-27T13:09:57.906Z,5.38
2023-03-27T13:13:13.031Z,5.25
2023-03-27T13:16:17.865Z,4.97
2023-03-27T13:19:04.222Z,4.82
2023-03-27T13:22:15.983Z,5.90
2023-03-27T13:25:25.354Z,5.32
2023-03-27T13:28:23.114Z,5.28
2023-03-27T13:31:10.397Z,13.48
2023-03-27T13:34:26.486Z,5.80
2023-03-27T13:37:10.056Z,5.65
2023-03-27T13:40:03.046Z,5.05
2023-03-27T13:42:40.674Z,5.35
2023-03-27T13:45:18.928Z,4.40
2023-03-27T13:48:27.403Z,4.90
2023-03-27T13:51:24.551Z,4.90
2023-03-27T13:54:32.159Z,4.82
2023-03-27T13:57:07.890Z,4.45
2023-03-27T14:00:05.362Z,4.90
2023-03-27T14:03:05.289Z,4.53
2023-03-27T14:06:07.335Z,4.70
2023-03-27T14:09:07.040Z,5.20
2023-03-27T14:12:32.366Z,5.68
2023-03-27T14:15:45.235Z,6.85
2023-03-27T14:18:45.264Z,8.40
2023-03-27T14:21:31.269Z,7.28
2023-03-27T14:24:35.618Z,5.65
2023-03-27T14:27:19.714Z,5.93
2023-03-27T14:30:22.566Z,5.43
2023-03-27T14:33:08.928Z,6.28
2023-03-27T14:35:47.763Z,6.00
2023-03-27T14:38:25.784Z,5.57
2023-03-27T14:41:07.457Z,4.95
2023-03-27T14:43:49.800Z,5.20
2023-03-27T14:46:24.418Z,5.35
2023-03-27T14:49:02.345Z,5.30
2023-03-27T14:51:42.922Z,6.10
2023-03-27T14:54:28.285Z,5.97
2023-03-27T14:57:09.989Z,6.25
2023-03-27T14:59:48.286Z,5.97
2023-03-27T15:02:36.078Z,6.05
2023-03-27T15:05:13.642Z,21.45
2023-03-27T15:07:49.907Z,12.77
2023-03-27T15:10:34.009Z,9.55
2023-03-27T15:13:12.431Z,8.23
2023-03-27T15:15:51.381Z,9.02
2023-03-27T15:18:25.630Z,7.60
2023-03-27T15:20:57.640Z,7.63
2023-03-27T15:24:14.986Z,8.23
2023-03-27T15:26:45.920Z,6.63
2023-03-27T15:29:50.890Z,7.72
2023-03-27T15:32:23.044Z,8.10
2023-03-27T15:34:59.124Z,7.25
2023-03-27T15:37:31.393Z,7.20
2023-03-27T15:40:10.035Z,7.63
2023-03-27T15:42:52.966Z,8.00
2023-03-27T15:45:26.678Z,7.65
2023-03-27T15:48:24.948Z,7.80
2023-03-27T15:51:07.056Z,7.75
2023-03-27T15:53:48.816Z,7.97
2023-03-27T15:56:26.506Z,7.55
2023-03-27T15:59:01.607Z,7.88
2023-03-27T16:01:42.413Z,6.50
2023-03-27T16:04:18.922Z,6.82
2023-03-27T16:06:55.648Z,6.93
2023-03-27T16:09:32.541Z,7.72
2023-03-27T16:12:03.342Z,7.63
2023-03-27T16:14:36.542Z,6.93
2023-03-27T16:17:17.927Z,6.53
2023-03-27T16:19:57.363Z,6.78
2023-03-27T16:22:28.881Z,7.25
2023-03-27T16:25:03.930Z,7.40
2023-03-27T16:27:45.398Z,7.32
2023-03-27T16:30:46.719Z,7.20
2023-03-27T16:33:19.339Z,6.57
2023-03-27T16:35:51.367Z,6.97
2023-03-27T16:38:22.841Z,6.13
2023-03-27T16:40:53.578Z,6.30
2023-03-27T16:43:24.258Z,6.18
2023-03-27T16:45:59.214Z,6.35
2023-03-27T16:48:29.971Z,6.75
2023-03-27T16:51:00.685Z,6.80
2023-03-27T16:53:31.636Z,6.07
2023-03-27T16:56:01.943Z,7.97
2023-03-27T16:58:32.633Z,5.97
2023-03-27T17:01:03.209Z,6.13
2023-03-27T17:03:35.131Z,6.95
2023-03-27T17:06:11.136Z,6.57
2023-03-27T17:08:41.758Z,6.57
2023-03-27T17:11:14.455Z,6.93
2023-03-27T17:13:44.714Z,7.32
2023-03-27T17:16:16.412Z,6.65
2023-03-27T17:18:47.556Z,7.63
2023-03-27T17:21:18.218Z,7.28
2023-03-27T17:23:49.685Z,7.30
2023-03-27T17:26:39.377Z,7.70
2023-03-27T17:29:11.205Z,6.75
2023-03-27T17:31:42.479Z,6.15
2023-03-27T17:34:13.518Z,7.00
2023-03-27T17:36:52.379Z,7.15
2023-03-27T17:39:28.996Z,7.03
2023-03-27T17:41:59.733Z,7.55
2023-03-27T17:44:33.469Z,7.57
2023-03-27T17:47:04.836Z,6.25
2023-03-27T17:49:36.159Z,6.88
2023-03-27T17:52:11.985Z,6.57
2023-03-27T17:54:43.130Z,7.28
2023-03-27T17:57:24.000Z,11.10
2023-03-27T17:59:55.719Z,14.30
2023-03-27T18:02:29.199Z,13.60
2023-03-27T18:05:01.311Z,14.30
2023-03-27T18:07:34.980Z,16.80
2023-03-27T18:10:06.448Z,16.65
2023-03-27T18:12:38.547Z,17.42
2023-03-27T18:15:10.266Z,17.00
2023-03-27T18:17:41.570Z,17.75
2023-03-27T18:20:14.932Z,18.58
2023-03-27T18:22:46.138Z,18.73
2023-03-27T18:25:19.024Z,19.45
2023-03-27T18:27:50.339Z,18.70
2023-03-27T18:30:21.999Z,19.08
2023-03-27T18:32:52.705Z,18.95
2023-03-27T18:35:24.161Z,18.88
2023-03-27T18:37:54.745Z,18.73
2023-03-27T18:40:25.889Z,18.50
2023-03-27T18:42:57.072Z,17.45
2023-03-27T18:45:28.148Z,18.02
2023-03-27T18:47:58.778Z,17.35
2023-03-27T18:50:29.801Z,18.13
2023-03-27T18:53:00.752Z,18.23
2023-03-27T18:55:33.320Z,17.17
2023-03-27T18:58:04.176Z,16.50
2023-03-27T19:00:34.819Z,15.77
2023-03-27T19:03:06.274Z,16.30
2023-03-27T19:05:37.316Z,15.55
2023-03-27T19:08:08.906Z,15.60
2023-03-27T19:10:40.545Z,14.93
2023-03-27T19:13:26.905Z,14.75
2023-03-27T19:16:33.129Z,15.38
2023-03-27T19:19:31.700Z,15.45
2023-03-27T19:22:09.364Z,14.48
2023-03-27T19:24:45.318Z,13.65
2023-03-27T19:27:23.931Z,13.65
2023-03-27T19:29:56.530Z,15.02
2023-03-27T19:32:27.620Z,15.30
2023-03-27T19:35:01.715Z,15.73
2023-03-27T19:37:33.566Z,16.50
2023-03-27T19:40:08.391Z,16.50
2023-03-27T19:42:39.369Z,17.15
2023-03-27T19:45:10.811Z,20.27
2023-03-27T19:47:41.576Z,17.92
2023-03-27T19:50:12.619Z,17.63
2023-03-27T19:53:05.196Z,17.05
2023-03-27T19:55:39.711Z,18.05
2023-03-27T19:58:10.687Z,16.40
2023-03-27T20:00:41.346Z,15.80
2023-03-27T20:03:20.575Z,16.27
2023-03-27T20:05:53.831Z,17.17
2023-03-27T20:08:25.082Z,16.67
2023-03-27T20:10:56.342Z,17.15
2023-03-27T20:13:27.662Z,19.67
2023-03-27T20:15:59.072Z,17.88
2023-03-27T20:18:33.699Z,17.38
2023-03-27T20:21:06.056Z,17.55
2023-03-27T20:23:38.625Z,16.38
2023-03-27T20:26:10.238Z,15.60
2023-03-27T20:28:44.678Z,14.15
2023-03-27T20:31:15.717Z,13.93
2023-03-27T20:33:48.392Z,13.20
2023-03-27T20:36:20.768Z,13.80
2023-03-27T20:38:53.600Z,12.45
2023-03-27T20:41:28.111Z,12.95
2023-03-27T20:43:59.940Z,12.48
2023-03-27T20:46:31.404Z,13.32
2023-03-27T20:49:04.407Z,14.15
2023-03-27T20:51:35.620Z,16.73
2023-03-27T20:54:11.045Z,16.08
2023-03-27T20:56:42.315Z,16.30
2023-03-27T20:59:14.460Z,17.52
2023-03-27T21:01:45.328Z,17.83
2023-03-27T21:04:16.299Z,17.33
2023-03-27T21:06:46.611Z,18.05
2023-03-27T21:09:17.283Z,16.75
2023-03-27T21:11:47.724Z,17.77
2023-03-27T21:14:18.653Z,16.77
2023-03-27T21:16:50.471Z,15.93
2023-03-27T21:19:23.672Z,14.30
2023-03-27T21:21:54.085Z,12.95
2023-03-27T21:24:24.740Z,13.20
2023-03-27T21:26:59.514Z,13.52
2023-03-27T21:29:30.037Z,14.20
2023-03-27T21:32:00.974Z,15.88
2023-03-27T21:34:31.640Z,15.75
2023-03-27T21:37:03.570Z,15.00
2023-03-27T21:39:34.254Z,14.27
2023-03-27T21:42:04.930Z,13.57
2023-03-27T21:44:35.359Z,13.27
2023-03-27T21:47:06.201Z,13.10
2023-03-27T21:49:37.672Z,12.18
2023-03-27T21:52:08.722Z,14.40
2023-03-27T21:54:40.077Z,13.68
2023-03-27T21:57:14.494Z,14.25
2023-03-27T21:59:45.429Z,12.98
2023-03-27T22:02:16.812Z,12.27
2023-03-27T22:04:47.698Z,15.85
2023-03-27T22:07:19.117Z,11.68
2023-03-27T22:09:49.776Z,10.48
2023-03-27T22:12:21.443Z,12.00
2023-03-27T22:14:52.624Z,12.02
2023-03-27T22:17:23.702Z,11.00
2023-03-27T22:19:55.566Z,11.35
2023-03-27T22:22:29.685Z,11.85
2023-03-27T22:25:00.476Z,12.43
2023-03-27T22:27:31.998Z,12.40
2023-03-27T22:30:03.150Z,12.90
2023-03-27T22:32:34.477Z,13.13
2023-03-27T22:35:05.717Z,14.43
2023-03-27T22:37:40.908Z,14.77
2023-03-27T22:40:12.004Z,13.60
2023-03-27T22:42:42.517Z,25.27
2023-03-27T22:45:13.653Z,15.15
2023-03-27T22:47:47.998Z,15.75
2023-03-27T22:50:19.507Z,22.38
2023-03-27T22:52:52.197Z,20.98
2023-03-27T22:55:23.125Z,18.95
2023-03-27T22:57:54.361Z,18.27
2023-03-27T23:00:25.525Z,15.05
2023-03-27T23:02:56.562Z,14.60
2023-03-27T23:05:27.565Z,15.20
2023-03-27T23:07:58.217Z,14.27
2023-03-27T23:10:29.221Z,13.60
2023-03-27T23:12:59.780Z,17.38
2023-03-27T23:15:31.432Z,17.10
2023-03-27T23:18:02.693Z,15.10
2023-03-27T23:20:36.641Z,14.20
2023-03-27T23:23:07.632Z,14.73
2023-03-27T23:25:40.049Z,13.73
2023-03-27T23:28:12.645Z,12.77
2023-03-27T23:30:45.615Z,12.70
2023-03-27T23:33:16.751Z,11.45
2023-03-27T23:35:48.035Z,12.93
2023-03-27T23:38:19.171Z,11.98
2023-03-27T23:40:56.863Z,11.15
2023-03-27T23:43:29.661Z,10.57
2023-03-27T23:46:01.872Z,10.55
2023-03-27T23:48:33.773Z,9.93
2023-03-27T23:51:04.882Z,8.90
2023-03-27T23:53:36.191Z,9.57
2023-03-27T23:56:07.543Z,9.98
2023-03-27T23:58:38.290Z,10.10
